Time;durP1;ratioP1;P1;durP2;ratioP2;P2;SDS_P1;SDS_P2;PMS_P1;PMS_P2;Temp;Humidity;BMP_temperature;BMP_pressure;BME280_temperature;BME280_humidity;BME280_pressure;Samples;Min_cycle;Max_cycle;Signal;HPM_P1;HPM_P2
2023/01/06 00:04:04;;;;;;;4.03;1.63;;;11.80;99.90;;;;;;10456194;28;20094;-25
2023/01/06 00:09:07;;;;;;;9.60;1.80;;;12.10;99.90;;;;;;10455217;28;20584;-26
2023/01/06 00:14:09;;;;;;;11.98;1.98;;;12.70;99.90;;;;;;10457418;28;20126;-25
2023/01/06 00:19:11;;;;;;;7.00;1.17;;;12.40;99.90;;;;;;10450238;28;20058;-25
2023/01/06 00:24:15;;;;;;;5.57;1.85;;;12.20;99.90;;;;;;10458997;28;20079;-24
2023/01/06 00:29:17;;;;;;;6.05;1.25;;;11.90;99.90;;;;;;10446597;28;20102;-25
2023/01/06 00:34:19;;;;;;;8.68;1.30;;;12.70;99.90;;;;;;10443876;28;20049;-24
2023/01/06 00:39:22;;;;;;;8.13;1.40;;;11.90;99.90;;;;;;10447816;28;20090;-27
2023/01/06 00:44:24;;;;;;;6.00;1.70;;;12.40;99.90;;;;;;10450876;28;20401;-26
2023/01/06 00:49:26;;;;;;;3.20;1.50;;;12.20;99.90;;;;;;10467363;28;20738;-26
2023/01/06 00:54:30;;;;;;;10.10;1.85;;;12.90;99.90;;;;;;10444466;28;20110;-27
2023/01/06 00:59:31;;;;;;;6.22;1.63;;;11.80;99.90;;;;;;10442992;28;20055;-25
2023/01/06 01:04:35;;;;;;;2.90;1.17;;;13.00;99.90;;;;;;10437394;28;20445;-28
2023/01/06 01:09:38;;;;;;;4.63;1.42;;;13.60;99.90;;;;;;10441330;28;20103;-24
2023/01/06 01:14:43;;;;;;;7.45;2.10;;;12.80;99.90;;;;;;10463241;28;20103;-24
2023/01/06 01:19:46;;;;;;;3.78;2.10;;;12.70;99.90;;;;;;10449285;28;20057;-24
2023/01/06 01:24:49;;;;;;;2.90;1.20;;;12.10;99.90;;;;;;10451630;28;20473;-24
2023/01/06 01:29:51;;;;;;;3.67;1.90;;;13.50;99.90;;;;;;10447884;28;20111;-25
2023/01/06 01:34:52;;;;;;;4.60;1.65;;;12.50;99.90;;;;;;10458405;28;20045;-25
2023/01/06 01:39:56;;;;;;;7.18;1.90;;;13.10;99.90;;;;;;10449377;28;20507;-25
2023/01/06 01:45:01;;;;;;;5.13;2.30;;;12.20;99.90;;;;;;10452196;28;20075;-24
2023/01/06 01:50:08;;;;;;;3.40;1.20;;;12.90;99.90;;;;;;10438467;28;20079;-24
2023/01/06 01:55:12;;;;;;;3.45;1.17;;;13.60;99.90;;;;;;10449670;28;20114;-26
2023/01/06 02:00:14;;;;;;;5.18;1.42;;;13.40;99.90;;;;;;10429918;28;20075;-25
2023/01/06 02:05:19;;;;;;;3.38;1.20;;;12.90;99.90;;;;;;10450416;28;20044;-26
2023/01/06 02:10:24;;;;;;;4.60;1.77;;;12.60;99.90;;;;;;10473443;28;20502;-26
2023/01/06 02:15:28;;;;;;;3.25;1.30;;;13.00;99.90;;;;;;10442593;28;20234;-25
2023/01/06 02:20:51;;;;;;;2.58;0.88;;;12.90;99.90;;;;;;10444532;28;20076;-26
2023/01/06 02:26:29;;;;;;;9.93;1.70;;;13.80;99.90;;;;;;10434706;28;20146;-25
2023/01/06 02:31:53;;;;;;;3.92;1.48;;;12.50;99.90;;;;;;10450461;28;20103;-23
2023/01/06 02:37:03;;;;;;;2.75;1.38;;;12.40;99.90;;;;;;10459264;28;20053;-28
2023/01/06 02:42:18;;;;;;;2.97;1.27;;;12.70;99.90;;;;;;10458525;28;20115;-26
2023/01/06 02:47:30;;;;;;;5.78;1.42;;;12.30;99.90;;;;;;10459653;28;20786;-25
2023/01/06 02:52:38;;;;;;;3.05;1.08;;;12.70;99.90;;;;;;10457026;28;20461;-26
2023/01/06 02:57:45;;;;;;;7.25;1.88;;;12.80;99.90;;;;;;10460254;28;20073;-25
2023/01/06 03:02:53;;;;;;;6.15;1.35;;;12.40;99.90;;;;;;10443142;28;20482;-25
2023/01/06 03:07:59;;;;;;;3.83;1.23;;;12.90;99.90;;;;;;10466846;28;20429;-24
2023/01/06 03:13:06;;;;;;;4.47;1.60;;;11.90;99.90;;;;;;10447087;28;20088;-26
2023/01/06 03:18:09;;;;;;;4.88;1.20;;;12.20;99.90;;;;;;10434855;28;20451;-26
2023/01/06 03:23:14;;;;;;;4.90;1.23;;;12.50;99.90;;;;;;10439411;28;20266;-26
2023/01/06 03:28:16;;;;;;;2.63;1.02;;;12.40;99.90;;;;;;10445327;28;20818;-25
2023/01/06 03:33:25;;;;;;;4.38;1.20;;;12.80;99.90;;;;;;10462832;28;20095;-25
2023/01/06 03:38:37;;;;;;;1.77;0.90;;;11.70;99.90;;;;;;10442579;28;20144;-25
2023/01/06 03:43:46;;;;;;;3.27;1.40;;;12.40;99.90;;;;;;10449942;28;20387;-27
2023/01/06 03:49:00;;;;;;;5.80;1.70;;;11.80;99.90;;;;;;10456803;28;20044;-26
2023/01/06 03:54:07;;;;;;;3.45;1.23;;;11.60;99.90;;;;;;10449649;28;20474;-26
2023/01/06 03:59:13;;;;;;;6.05;2.17;;;12.90;99.90;;;;;;10459573;28;20106;-24
2023/01/06 04:04:18;;;;;;;8.68;1.42;;;11.90;99.90;;;;;;10467679;28;20048;-25
2023/01/06 04:09:20;;;;;;;3.67;1.33;;;13.20;99.90;;;;;;10471528;28;20063;-24
2023/01/06 04:14:22;;;;;;;3.03;1.40;;;12.20;99.90;;;;;;10464725;28;20064;-25
2023/01/06 04:19:25;;;;;;;6.28;1.88;;;11.70;99.90;;;;;;10463825;28;20049;-25
2023/01/06 04:24:27;;;;;;;1.00;1.00;;;12.30;99.90;;;;;;10464212;28;20541;-25
2023/01/06 04:29:29;;;;;;;4.70;1.58;;;12.80;99.90;;;;;;10456647;28;20099;-25
2023/01/06 04:34:32;;;;;;;3.63;1.25;;;12.30;99.90;;;;;;10457705;28;20140;-26
2023/01/06 04:39:34;;;;;;;4.45;1.45;;;12.30;99.90;;;;;;10465813;28;20515;-25
2023/01/06 04:44:36;;;;;;;6.25;1.45;;;12.00;99.90;;;;;;10469833;28;20155;-27
2023/01/06 04:49:39;;;;;;;7.47;1.73;;;11.90;99.90;;;;;;10453468;28;20041;-24
2023/01/06 04:54:41;;;;;;;1.95;1.10;;;11.70;99.90;;;;;;10463104;28;20136;-25
2023/01/06 04:59:43;;;;;;;4.18;1.38;;;11.90;99.90;;;;;;10438735;28;20049;-26
2023/01/06 05:04:46;;;;;;;2.58;1.30;;;11.70;99.90;;;;;;10441850;28;20080;-24
2023/01/06 05:09:48;;;;;;;6.45;1.90;;;11.60;99.90;;;;;;10426848;28;20092;-24
2023/01/06 05:14:50;;;;;;;2.88;1.63;;;12.10;99.90;;;;;;10447695;28;20076;-24
2023/01/06 05:19:53;;;;;;;6.43;1.67;;;12.10;99.90;;;;;;10450024;28;20501;-25
2023/01/06 05:24:55;;;;;;;2.42;1.02;;;12.50;99.90;;;;;;10430928;28;20125;-24
2023/01/06 05:29:57;;;;;;;4.20;1.00;;;11.90;99.90;;;;;;10448697;28;20072;-25
2023/01/06 05:35:01;;;;;;;4.93;1.30;;;11.60;99.90;;;;;;10429671;28;20080;-25
2023/01/06 05:40:02;;;;;;;1.15;1.05;;;11.60;99.90;;;;;;10425047;28;20115;-25
2023/01/06 05:45:05;;;;;;;2.05;0.90;;;11.70;99.90;;;;;;10438479;28;20076;-25
2023/01/06 05:50:09;;;;;;;1.65;0.77;;;12.40;99.90;;;;;;10441464;28;20072;-26
2023/01/06 05:55:11;;;;;;;6.05;1.15;;;11.70;99.90;;;;;;10450702;28;20103;-24
2023/01/06 06:00:14;;;;;;;9.00;1.48;;;11.30;99.90;;;;;;10448103;28;20136;-25
2023/01/06 06:05:17;;;;;;;2.72;1.98;;;11.10;99.90;;;;;;10451968;28;20044;-25
2023/01/06 06:10:19;;;;;;;4.13;0.90;;;11.40;99.90;;;;;;10450898;28;20069;-25
2023/01/06 06:15:21;;;;;;;7.75;2.20;;;11.80;99.90;;;;;;10452162;28;20539;-25
2023/01/06 06:20:24;;;;;;;4.80;1.35;;;10.90;99.90;;;;;;10453017;28;20102;-23
2023/01/06 06:25:28;;;;;;;11.20;2.60;;;11.40;99.90;;;;;;10455100;28;20044;-25
2023/01/06 06:30:30;;;;;;;5.45;1.40;;;10.80;99.90;;;;;;10451585;28;20136;-23
2023/01/06 06:35:33;;;;;;;8.95;1.52;;;11.60;99.90;;;;;;10453472;28;20140;-24
2023/01/06 06:40:34;;;;;;;6.78;1.52;;;11.60;99.90;;;;;;10450535;28;20080;-24
2023/01/06 06:45:36;;;;;;;13.65;1.80;;;11.00;99.90;;;;;;10443864;28;20076;-25
2023/01/06 06:50:40;;;;;;;16.48;2.75;;;10.80;99.90;;;;;;10435182;28;20042;-24
2023/01/06 06:55:42;;;;;;;11.52;2.28;;;10.80;99.90;;;;;;10448038;28;20057;-27
2023/01/06 07:00:44;;;;;;;13.63;2.88;;;11.10;99.90;;;;;;10445510;28;20129;-25
2023/01/06 07:15:30;;;;;;;16.45;2.15;;;11.60;99.90;;;;;;10499065;27;20133;-26
2023/01/06 07:20:33;;;;;;;16.45;2.20;;;11.40;99.90;;;;;;10479519;28;20053;-26
2023/01/06 07:25:35;;;;;;;;;;;11.10;99.90;;;;;;10468781;28;20072;-24
2023/01/06 07:30:38;;;;;;;13.63;1.98;;;10.60;99.90;;;;;;10474740;28;20088;-24
2023/01/06 07:35:40;;;;;;;13.07;2.58;;;11.50;99.90;;;;;;10470898;28;20128;-24
2023/01/06 07:40:42;;;;;;;17.05;3.13;;;11.10;99.90;;;;;;10495417;28;20072;-25
2023/01/06 07:45:46;;;;;;;6.20;1.40;;;11.20;99.90;;;;;;10492442;28;20057;-25
2023/01/06 07:50:48;;;;;;;10.48;1.50;;;10.90;99.90;;;;;;10476652;28;20068;-24
2023/01/06 07:55:53;;;;;;;11.13;1.27;;;10.60;99.90;;;;;;10491871;28;20078;-25
2023/01/06 08:00:56;;;;;;;10.57;1.10;;;10.10;99.90;;;;;;10474696;28;20084;-27
2023/01/06 08:05:58;;;;;;;;;;;11.00;99.90;;;;;;10479577;28;20044;-26
2023/01/06 08:11:00;;;;;;;5.85;1.42;;;12.00;99.90;;;;;;10491260;28;20030;-26
2023/01/06 08:16:06;;;;;;;4.15;0.90;;;13.40;99.90;;;;;;10474840;28;20048;-25
2023/01/06 08:21:09;;;;;;;9.82;1.58;;;13.20;99.90;;;;;;10482356;28;20048;-25
2023/01/06 08:26:13;;;;;;;11.00;2.60;;;12.60;99.90;;;;;;10468814;28;20068;-25
2023/01/06 08:31:18;;;;;;;12.43;2.47;;;11.40;99.90;;;;;;10449147;28;20156;-24
2023/01/06 08:36:22;;;;;;;10.85;1.58;;;10.80;99.90;;;;;;10461469;28;20130;-23
2023/01/06 08:41:24;;;;;;;12.38;2.75;;;11.00;99.90;;;;;;10467461;28;20036;-26
2023/01/06 08:46:27;;;;;;;9.47;1.67;;;10.00;99.90;;;;;;10456676;28;20127;-25
2023/01/06 08:51:28;;;;;;;;;;;10.10;99.90;;;;;;10457654;28;20069;-26
2023/01/06 08:56:31;;;;;;;10.55;1.77;;;10.40;99.90;;;;;;10466013;28;19924;-25
2023/01/06 09:01:35;;;;;;;;;;;10.10;99.90;;;;;;10449625;28;20044;-26
2023/01/06 09:06:38;;;;;;;9.00;1.38;;;10.50;99.90;;;;;;10460827;28;20331;-24
2023/01/06 09:11:41;;;;;;;11.32;1.20;;;11.20;99.90;;;;;;10470116;28;20082;-26
2023/01/06 09:16:46;;;;;;;7.53;1.00;;;11.30;99.90;;;;;;10452042;28;20128;-27
2023/01/06 09:21:48;;;;;;;6.78;1.30;;;12.70;99.90;;;;;;10470615;28;20106;-25
2023/01/06 09:26:50;;;;;;;7.60;1.37;;;12.60;99.90;;;;;;10449094;28;20124;-24
2023/01/06 09:31:54;;;;;;;12.27;1.80;;;12.10;99.90;;;;;;10441953;28;20092;-25
2023/01/06 09:36:55;;;;;;;13.35;1.58;;;10.90;99.90;;;;;;10456340;28;20083;-23
2023/01/06 09:42:15;;;;;;;14.60;2.13;;;10.90;99.90;;;;;;10433191;28;20115;-23
2023/01/06 09:47:22;;;;;;;9.23;2.10;;;11.00;99.90;;;;;;10446393;28;20063;-24
2023/01/06 09:52:29;;;;;;;8.13;2.03;;;11.00;99.90;;;;;;10441987;28;20098;-24
2023/01/06 09:57:33;;;;;;;12.80;2.22;;;11.60;99.90;;;;;;10435768;28;20076;-33
2023/01/06 10:02:39;;;;;;;6.55;0.80;;;10.60;99.90;;;;;;10433595;28;20073;-25
2023/01/06 10:07:46;;;;;;;10.00;1.15;;;11.00;99.90;;;;;;10432908;28;20542;-26
2023/01/06 10:12:59;;;;;;;2.60;0.68;;;11.80;99.90;;;;;;10441997;28;20049;-23
2023/01/06 10:18:24;;;;;;;8.13;1.23;;;11.10;99.90;;;;;;10435688;28;20433;-25
2023/01/06 10:23:44;;;;;;;9.77;1.40;;;11.20;99.90;;;;;;10430254;28;20140;-26
2023/01/06 10:28:52;;;;;;;6.90;1.50;;;11.10;99.90;;;;;;10424590;28;20162;-26
2023/01/06 10:33:56;;;;;;;7.60;1.40;;;12.00;99.90;;;;;;10442614;28;20445;-24
2023/01/06 10:39:00;;;;;;;10.95;1.08;;;12.80;99.90;;;;;;10440785;28;20045;-26
2023/01/06 10:44:02;;;;;;;12.27;2.45;;;11.80;99.90;;;;;;10434425;28;20084;-26
2023/01/06 10:49:11;;;;;;;20.95;3.05;;;11.50;99.90;;;;;;10448569;28;20079;-29
2023/01/06 10:54:17;;;;;;;8.75;1.83;;;11.40;99.90;;;;;;10442783;28;20048;-25
2023/01/06 10:59:19;;;;;;;9.48;1.83;;;10.90;99.90;;;;;;10445862;28;20045;-25
2023/01/06 11:04:23;;;;;;;5.90;1.17;;;11.40;99.90;;;;;;10456863;28;20301;-25
2023/01/06 11:09:29;;;;;;;3.50;1.17;;;11.70;99.90;;;;;;10444545;28;20091;-25
2023/01/06 11:14:34;;;;;;;5.90;1.27;;;11.50;99.90;;;;;;10456630;28;20059;-25
2023/01/06 11:19:39;;;;;;;7.93;0.93;;;11.30;99.90;;;;;;10447298;28;20052;-27
2023/01/06 11:24:52;;;;;;;13.85;1.65;;;11.80;99.90;;;;;;10442692;28;20056;-25
2023/01/06 11:29:54;;;;;;;9.30;1.23;;;11.60;99.90;;;;;;10443968;28;20137;-24
2023/01/06 11:35:00;;;;;;;3.47;0.70;;;11.70;99.90;;;;;;10447057;28;20084;-26
2023/01/06 11:40:04;;;;;;;7.82;1.80;;;11.80;99.90;;;;;;10435607;28;20494;-25
2023/01/06 11:45:06;;;;;;;6.57;1.80;;;11.50;99.90;;;;;;10426806;28;20132;-24
2023/01/06 11:50:19;;;;;;;7.70;1.30;;;12.30;99.90;;;;;;10430986;28;20662;-25
2023/01/06 11:55:21;;;;;;;;;;;12.30;99.90;;;;;;10452454;28;20080;-25
2023/01/06 12:00:41;;;;;;;13.60;2.17;;;12.50;99.90;;;;;;10423577;28;20351;-25
2023/01/06 12:05:49;;;;;;;13.10;2.63;;;11.90;99.90;;;;;;10443646;28;20138;-27
2023/01/06 12:10:56;;;;;;;6.50;1.15;;;12.10;99.90;;;;;;10436325;28;20149;-25
2023/01/06 12:16:02;;;;;;;7.45;1.15;;;12.20;99.90;;;;;;10432305;28;20049;-25
2023/01/06 12:21:08;;;;;;;8.35;1.75;;;12.40;99.90;;;;;;10449068;28;20490;-27
2023/01/06 12:26:15;;;;;;;5.25;1.27;;;12.10;99.90;;;;;;10437341;28;20350;-27
2023/01/06 12:31:24;;;;;;;7.20;1.23;;;12.20;99.90;;;;;;10444507;28;20605;-25
2023/01/06 12:36:35;;;;;;;5.05;1.00;;;12.40;99.90;;;;;;10446781;28;20127;-25
2023/01/06 12:41:41;;;;;;;5.35;0.90;;;12.60;99.90;;;;;;10454603;28;20053;-25
2023/01/06 12:46:50;;;;;;;10.10;1.38;;;13.70;99.90;;;;;;10459787;28;20083;-31
2023/01/06 12:51:57;;;;;;;7.32;2.03;;;12.90;99.90;;;;;;10467250;28;20489;-25
2023/01/06 12:57:14;;;;;;;5.40;1.10;;;12.70;99.90;;;;;;10432422;28;20537;-25
2023/01/06 13:02:31;;;;;;;3.83;1.15;;;13.50;99.90;;;;;;10443216;28;20582;-24
2023/01/06 13:07:42;;;;;;;9.48;1.27;;;12.30;99.90;;;;;;10454519;28;20064;-27
2023/01/06 13:12:59;;;;;;;5.32;0.80;;;13.40;99.90;;;;;;10440825;28;20595;-25
2023/01/06 13:18:11;;;;;;;4.32;0.55;;;12.90;99.90;;;;;;10444702;28;20103;-24
2023/01/06 13:23:37;;;;;;;3.45;0.63;;;12.60;99.90;;;;;;10437588;28;20044;-27
2023/01/06 13:28:47;;;;;;;8.18;1.50;;;12.00;99.90;;;;;;10430165;28;20106;-25
2023/01/06 16:09:29;;;;;;;6.43;1.40;;;13.00;99.90;;;;;;10341128;27;7293047;-26
2023/01/06 16:14:34;;;;;;;9.77;1.73;;;13.40;99.90;;;;;;10609990;27;20088;-26
2023/01/06 16:19:44;;;;;;;11.00;1.50;;;12.60;99.90;;;;;;10616895;27;20130;-27
2023/01/06 16:24:50;;;;;;;10.27;1.80;;;12.80;99.90;;;;;;10592602;27;20067;-27
2023/01/06 16:30:19;;;;;;;11.65;1.95;;;13.00;99.90;;;;;;10607108;27;20046;-27
2023/01/06 16:35:23;;;;;;;11.63;2.28;;;14.10;99.90;;;;;;10614446;27;20039;-26
2023/01/06 16:40:28;;;;;;;3.13;1.10;;;15.30;96.40;;;;;;10618075;27;20038;-26
2023/01/06 16:45:35;;;;;;;3.25;0.90;;;17.00;99.80;;;;;;10610622;27;20043;-27
2023/01/06 16:50:40;;;;;;;3.58;0.88;;;17.20;97.10;;;;;;10614003;27;20044;-26
2023/01/06 16:55:49;;;;;;;7.15;0.90;;;17.20;98.70;;;;;;10611365;27;20111;-27
2023/01/06 17:00:53;;;;;;;2.10;0.95;;;14.90;99.90;;;;;;10603483;27;20051;-27
2023/01/06 17:05:55;;;;;;;5.95;1.80;;;16.20;99.90;;;;;;10615437;27;20047;-27
2023/01/06 17:11:01;;;;;;;8.63;1.73;;;14.00;99.90;;;;;;10601712;27;20047;-25
2023/01/06 17:16:13;;;;;;;4.15;1.17;;;15.20;99.90;;;;;;10612987;27;20403;-27
2023/01/06 17:21:17;;;;;;;6.10;1.37;;;15.30;99.90;;;;;;10604696;27;20085;-27
2023/01/06 17:26:22;;;;;;;8.25;2.65;;;15.50;99.90;;;;;;10597883;27;20058;-26
2023/01/06 17:31:31;;;;;;;8.93;2.53;;;13.40;99.90;;;;;;10589020;27;20158;-27
2023/01/06 17:36:38;;;;;;;12.13;2.75;;;12.30;99.90;;;;;;10591274;27;20495;-26
2023/01/06 17:41:42;;;;;;;4.15;1.30;;;13.60;99.90;;;;;;10587889;27;20040;-27
2023/01/06 17:46:45;;;;;;;6.20;1.25;;;16.10;99.90;;;;;;10593330;27;20050;-26
2023/01/06 17:51:50;;;;;;;5.80;2.55;;;16.80;99.90;;;;;;10578032;27;20060;-27
2023/01/06 17:56:54;;;;;;;3.10;1.30;;;16.10;99.90;;;;;;10592576;28;20055;-27
2023/01/06 18:01:56;;;;;;;5.60;2.67;;;16.90;99.90;;;;;;10583493;28;20104;-26
2023/01/06 18:06:58;;;;;;;9.53;2.33;;;15.50;99.90;;;;;;10587192;28;20081;-26
2023/01/06 18:12:02;;;;;;;2.88;0.90;;;15.50;99.90;;;;;;10546538;28;20062;-28
2023/01/06 18:17:19;;;;;;;9.13;3.78;;;16.40;99.90;;;;;;10513452;28;20052;-27
2023/01/06 18:22:23;;;;;;;7.65;2.35;;;14.70;99.90;;;;;;10438488;28;20119;-27
2023/01/06 18:27:32;;;;;;;12.73;5.50;;;13.90;99.90;;;;;;10433543;28;20047;-26
2023/01/06 18:32:36;;;;;;;10.02;5.43;;;13.80;99.90;;;;;;10430265;28;20056;-28
2023/01/06 18:37:38;;;;;;;7.75;5.00;;;13.20;99.90;;;;;;10435325;28;20049;-26
2023/01/06 18:42:44;;;;;;;7.15;4.93;;;13.50;99.90;;;;;;10442506;28;20082;-25
2023/01/06 18:47:51;;;;;;;8.73;5.97;;;12.50;99.90;;;;;;10445145;28;20123;-27
2023/01/06 18:52:54;;;;;;;8.10;5.00;;;13.00;99.90;;;;;;10436188;28;20049;-26
2023/01/06 18:58:00;;;;;;;10.32;5.47;;;12.80;99.90;;;;;;10434835;28;20441;-26
2023/01/06 19:03:39;;;;;;;12.90;8.85;;;12.20;99.90;;;;;;10431915;28;20045;-26
2023/01/06 19:08:42;;;;;;;6.10;4.72;;;11.90;99.90;;;;;;10445968;28;20063;-27
2023/01/06 19:13:47;;;;;;;12.82;9.07;;;12.10;99.90;;;;;;10476753;28;20051;-27
2023/01/06 19:18:48;;;;;;;7.97;5.82;;;11.60;99.90;;;;;;10485648;28;20133;-27
2023/01/06 19:23:50;;;;;;;9.38;6.75;;;12.10;99.90;;;;;;10486496;28;20135;-26
2023/01/06 19:28:59;;;;;;;7.93;6.05;;;12.70;99.90;;;;;;10492128;28;20072;-27
2023/01/06 19:34:04;;;;;;;6.97;4.70;;;13.10;99.90;;;;;;10473948;28;20044;-27
2023/01/06 19:39:21;;;;;;;8.70;6.03;;;14.50;99.90;;;;;;10483909;28;20477;-28
2023/01/06 19:44:30;;;;;;;8.68;7.10;;;13.20;99.90;;;;;;10481022;28;20055;-27
2023/01/06 19:49:38;;;;;;;11.10;7.05;;;12.90;99.90;;;;;;10486015;28;20041;-28
2023/01/06 19:54:41;;;;;;;11.45;6.53;;;12.70;99.90;;;;;;10488977;28;20123;-26
2023/01/06 19:59:44;;;;;;;9.20;4.38;;;12.40;99.90;;;;;;10483410;28;20041;-26
2023/01/06 20:04:46;;;;;;;5.35;4.10;;;13.60;99.90;;;;;;10481922;28;20052;-25
2023/01/06 20:09:49;;;;;;;7.70;6.25;;;12.90;99.90;;;;;;10480124;28;20130;-27
2023/01/06 20:14:52;;;;;;;7.10;5.03;;;12.40;99.90;;;;;;10466833;28;20087;-27
2023/01/06 20:19:54;;;;;;;7.55;4.90;;;12.30;99.90;;;;;;10462805;28;20478;-24
2023/01/06 20:24:56;;;;;;;6.57;5.17;;;12.70;99.90;;;;;;10469183;28;20403;-26
2023/01/06 20:30:00;;;;;;;8.30;6.25;;;12.70;99.90;;;;;;10479906;28;20500;-26
2023/01/06 20:35:02;;;;;;;7.40;6.60;;;12.90;99.90;;;;;;10472410;28;20056;-26
2023/01/06 20:40:04;;;;;;;7.90;6.70;;;12.40;99.90;;;;;;10480799;28;20097;-27
2023/01/06 20:45:09;;;;;;;6.75;5.68;;;12.30;99.90;;;;;;10482736;28;20095;-26
2023/01/06 20:50:13;;;;;;;7.32;6.55;;;11.80;99.90;;;;;;10482159;28;20045;-25
2023/01/06 20:55:15;;;;;;;7.18;6.45;;;11.70;99.90;;;;;;10467691;28;20057;-25
2023/01/06 21:00:19;;;;;;;8.30;6.70;;;11.90;99.90;;;;;;10462043;28;20106;-27
2023/01/06 21:05:21;;;;;;;7.65;6.40;;;11.60;99.90;;;;;;10465362;28;20045;-26
2023/01/06 21:10:23;;;;;;;12.25;8.40;;;11.80;99.90;;;;;;10481717;28;20106;-27
2023/01/06 21:15:26;;;;;;;9.15;7.15;;;11.50;99.90;;;;;;10488796;28;20059;-25
2023/01/06 21:20:28;;;;;;;9.45;7.90;;;12.00;99.90;;;;;;10487663;28;20084;-26
2023/01/06 21:25:30;;;;;;;10.75;7.20;;;12.10;99.90;;;;;;10476008;28;20072;-27
2023/01/06 21:30:34;;;;;;;10.27;6.70;;;12.20;99.90;;;;;;10482056;28;20072;-26
2023/01/06 21:35:35;;;;;;;9.70;7.82;;;12.30;99.90;;;;;;10480673;28;20041;-26
2023/01/06 21:40:37;;;;;;;8.38;6.90;;;11.70;99.90;;;;;;10478759;28;20481;-25
2023/01/06 21:45:42;;;;;;;15.97;8.33;;;12.40;99.90;;;;;;10487182;28;20036;-27
2023/01/06 21:50:46;;;;;;;8.13;6.38;;;12.20;99.90;;;;;;10488775;28;20060;-27
2023/01/06 21:55:48;;;;;;;8.77;7.72;;;12.50;99.90;;;;;;10485486;28;20052;-25
2023/01/06 22:00:51;;;;;;;7.78;6.35;;;12.20;99.90;;;;;;10484313;28;20525;-26
2023/01/06 22:05:53;;;;;;;12.32;8.20;;;12.40;99.90;;;;;;10487108;28;20045;-26
2023/01/06 22:10:55;;;;;;;12.40;7.83;;;11.90;99.90;;;;;;10472207;28;20132;-25
2023/01/06 22:15:59;;;;;;;4.40;4.00;;;12.30;99.90;;;;;;10484663;28;20071;-27
2023/01/06 22:21:01;;;;;;;7.95;6.03;;;12.90;99.90;;;;;;10495108;28;20109;-27
2023/01/06 22:26:04;;;;;;;11.43;7.00;;;12.80;99.90;;;;;;10490968;28;20071;-26
2023/01/06 22:31:08;;;;;;;5.40;4.68;;;12.20;99.90;;;;;;10492762;28;20068;-26
2023/01/06 22:36:10;;;;;;;10.10;5.25;;;12.50;99.90;;;;;;10482774;28;20064;-26
2023/01/06 22:41:11;;;;;;;9.18;5.45;;;12.40;99.90;;;;;;10485287;28;20072;-26
2023/01/06 22:46:15;;;;;;;4.78;3.78;;;12.30;99.90;;;;;;10473010;28;20055;-26
2023/01/06 22:51:17;;;;;;;6.57;5.50;;;12.70;99.90;;;;;;10495562;28;20040;-28
2023/01/06 22:56:19;;;;;;;9.32;5.45;;;11.70;99.90;;;;;;10486801;28;20040;-26
2023/01/06 23:01:22;;;;;;;4.27;3.87;;;12.10;99.90;;;;;;10477462;28;20049;-26
2023/01/06 23:06:24;;;;;;;5.20;3.80;;;12.30;99.90;;;;;;10486562;28;20053;-25
2023/01/06 23:11:27;;;;;;;4.28;3.13;;;12.50;99.90;;;;;;10483147;28;20159;-26
2023/01/06 23:16:30;;;;;;;5.50;3.95;;;13.30;99.90;;;;;;10484076;28;20048;-27
2023/01/06 23:21:33;;;;;;;7.95;5.20;;;12.70;99.90;;;;;;10482236;28;20124;-26
2023/01/06 23:26:40;;;;;;;4.43;3.38;;;12.20;99.90;;;;;;10493152;28;20370;-26
2023/01/06 23:31:45;;;;;;;4.65;2.78;;;12.30;99.90;;;;;;10486721;28;20047;-26
2023/01/06 23:36:47;;;;;;;6.70;4.10;;;12.70;99.90;;;;;;10488368;28;20056;-26
2023/01/06 23:41:49;;;;;;;3.63;2.42;;;12.20;99.90;;;;;;10489290;28;20045;-26
2023/01/06 23:46:52;;;;;;;6.13;3.25;;;13.30;99.90;;;;;;10490250;28;20951;-27
2023/01/06 23:51:54;;;;;;;4.13;2.85;;;13.00;99.90;;;;;;10489732;28;20773;-26
2023/01/06 23:56:56;;;;;;;3.75;2.45;;;12.70;99.90;;;;;;10488434;28;20044;-26
